createdAt,value
2019-03-31T00:01:07.570Z,48.18
2019-03-31T00:03:27.025Z,48.40
2019-03-31T00:05:55.639Z,48.63
2019-03-31T00:08:24.139Z,48.50
2019-03-31T00:10:52.625Z,48.98
2019-03-31T00:13:21.120Z,48.61
2019-03-31T00:15:49.587Z,48.52
2019-03-31T00:18:18.072Z,48.57
2019-03-31T00:20:46.576Z,48.56
2019-03-31T00:23:15.044Z,48.64
2019-03-31T00:25:45.190Z,48.69
2019-03-31T00:28:13.670Z,48.50
2019-03-31T00:30:42.159Z,48.29
2019-03-31T00:33:10.671Z,48.06
2019-03-31T00:35:39.179Z,48.22
2019-03-31T00:38:07.659Z,47.84
2019-03-31T00:40:36.162Z,47.76
2019-03-31T00:43:04.722Z,48.24
2019-03-31T00:45:33.478Z,47.91
2019-03-31T00:48:01.945Z,47.86
2019-03-31T00:50:30.462Z,47.80
2019-03-31T00:52:58.964Z,47.91
2019-03-31T00:55:27.508Z,48.36
2019-03-31T00:57:56.008Z,48.12
2019-03-31T01:00:38.973Z,47.93
2019-03-31T01:03:08.003Z,48.38
2019-03-31T01:05:38.991Z,49.28
2019-03-31T01:08:07.902Z,49.58
2019-03-31T01:10:36.532Z,50.01
2019-03-31T01:13:05.769Z,50.98
2019-03-31T01:15:35.377Z,51.00
2019-03-31T01:18:04.393Z,51.82
2019-03-31T01:20:32.944Z,52.29
2019-03-31T01:23:01.460Z,52.41
2019-03-31T01:25:30.002Z,52.18
2019-03-31T01:28:02.758Z,52.38
2019-03-31T01:30:33.898Z,52.23
2019-03-31T01:33:02.871Z,53.03
2019-03-31T01:35:31.530Z,53.01
2019-03-31T01:38:00.022Z,52.40
2019-03-31T01:40:28.502Z,52.74
2019-03-31T01:42:57.144Z,52.95
2019-03-31T01:45:25.806Z,55.32
2019-03-31T01:47:54.314Z,54.88
2019-03-31T01:50:23.324Z,55.28
2019-03-31T01:52:51.800Z,56.16
2019-03-31T01:55:20.334Z,56.92
2019-03-31T01:57:48.848Z,55.77
2019-03-31T02:00:35.957Z,55.57
2019-03-31T02:03:04.778Z,54.86
2019-03-31T02:05:33.390Z,54.32
2019-03-31T02:08:01.934Z,53.68
2019-03-31T02:10:30.411Z,53.29
2019-03-31T02:12:58.886Z,54.37
2019-03-31T02:15:27.371Z,54.41
2019-03-31T02:17:55.844Z,57.11
2019-03-31T02:20:24.346Z,57.44
2019-03-31T02:22:52.812Z,56.56
2019-03-31T02:25:21.311Z,57.11
2019-03-31T02:27:49.772Z,56.09
2019-03-31T02:30:18.396Z,55.67
2019-03-31T02:32:46.861Z,55.53
2019-03-31T02:35:15.435Z,54.99
2019-03-31T02:37:43.905Z,55.35
2019-03-31T02:40:12.448Z,55.97
2019-03-31T02:42:40.953Z,57.80
2019-03-31T02:45:09.667Z,57.66
2019-03-31T02:47:39.680Z,57.11
2019-03-31T02:50:08.984Z,56.37
2019-03-31T02:52:37.476Z,57.15
2019-03-31T02:55:06.912Z,58.23
2019-03-31T02:57:35.853Z,57.13
2019-03-31T03:00:05.554Z,56.38
2019-03-31T03:02:42.250Z,56.11
2019-03-31T03:05:18.842Z,55.92
2019-03-31T03:07:39.569Z,55.49
2019-03-31T03:10:09.394Z,56.00
2019-03-31T03:12:39.802Z,56.10
2019-03-31T03:15:08.707Z,56.46
2019-03-31T03:17:37.192Z,56.43
2019-03-31T03:20:06.202Z,56.39
2019-03-31T03:22:34.682Z,57.12
2019-03-31T03:25:03.152Z,57.58
2019-03-31T03:27:31.656Z,57.61
2019-03-31T03:30:00.427Z,57.61
2019-03-31T03:32:29.391Z,58.54
2019-03-31T03:34:57.957Z,59.45
2019-03-31T03:37:26.463Z,60.19
2019-03-31T03:39:54.937Z,58.58
2019-03-31T03:42:23.449Z,57.97
2019-03-31T03:44:51.948Z,57.69
2019-03-31T03:47:20.447Z,57.45
2019-03-31T03:49:48.915Z,56.90
2019-03-31T03:52:17.413Z,58.94
2019-03-31T03:54:45.917Z,60.65
2019-03-31T03:57:14.387Z,61.48
2019-03-31T03:59:42.894Z,63.15
2019-03-31T04:02:11.409Z,61.33
2019-03-31T04:04:39.968Z,60.08
2019-03-31T04:07:08.433Z,59.76
2019-03-31T04:09:36.917Z,63.76
2019-03-31T04:12:05.497Z,64.57
2019-03-31T04:14:33.975Z,63.74
2019-03-31T04:17:02.467Z,61.48
2019-03-31T04:19:30.941Z,60.28
2019-03-31T04:21:59.454Z,60.64
2019-03-31T04:24:27.933Z,59.59
2019-03-31T04:26:56.469Z,59.01
2019-03-31T04:29:24.936Z,59.08
2019-03-31T04:31:53.439Z,58.42
2019-03-31T04:34:21.914Z,58.64
2019-03-31T04:36:50.416Z,60.09
2019-03-31T04:39:18.887Z,59.32
2019-03-31T04:41:47.392Z,59.19
2019-03-31T04:44:17.272Z,60.09
2019-03-31T04:46:45.772Z,60.93
2019-03-31T04:49:14.256Z,61.66
2019-03-31T04:51:42.722Z,61.01
2019-03-31T04:54:11.211Z,60.65
2019-03-31T04:56:39.677Z,61.22
2019-03-31T04:59:08.160Z,61.27
2019-03-31T05:01:36.661Z,62.03
2019-03-31T05:04:05.504Z,61.70
2019-03-31T05:06:34.083Z,61.88
2019-03-31T05:09:02.570Z,60.73
2019-03-31T05:11:31.064Z,59.93
2019-03-31T05:13:59.538Z,58.44
2019-03-31T05:16:28.015Z,57.87
2019-03-31T05:18:56.500Z,57.37
2019-03-31T05:21:24.997Z,57.30
2019-03-31T05:23:53.527Z,56.65
2019-03-31T05:26:22.019Z,56.20
2019-03-31T05:28:50.521Z,56.29
2019-03-31T05:31:19.001Z,56.16
2019-03-31T05:33:47.480Z,55.70
2019-03-31T05:36:15.947Z,54.66
2019-03-31T05:38:44.443Z,54.39
2019-03-31T05:41:12.894Z,54.73
2019-03-31T05:43:41.470Z,54.74
2019-03-31T05:46:09.941Z,54.62
2019-03-31T05:48:38.435Z,52.85
2019-03-31T05:51:06.900Z,52.22
2019-03-31T05:53:35.398Z,51.19
2019-03-31T05:56:04.109Z,50.95
2019-03-31T05:58:32.659Z,50.41
2019-03-31T06:01:01.718Z,50.06
2019-03-31T06:03:30.183Z,49.85
2019-03-31T06:05:58.687Z,49.21
2019-03-31T06:08:27.163Z,49.19
2019-03-31T06:10:55.490Z,49.23
2019-03-31T06:13:24.032Z,48.73
2019-03-31T06:15:52.584Z,48.39
2019-03-31T06:18:21.051Z,48.08
2019-03-31T06:20:49.608Z,47.64
2019-03-31T06:23:18.980Z,47.51
2019-03-31T06:25:47.487Z,47.51
2019-03-31T06:28:15.963Z,47.06
2019-03-31T06:30:46.041Z,46.48
2019-03-31T06:33:14.522Z,46.46
2019-03-31T06:35:42.990Z,46.17
2019-03-31T06:38:11.479Z,46.14
2019-03-31T06:40:41.261Z,45.93
2019-03-31T06:43:09.748Z,46.27
2019-03-31T06:45:38.222Z,46.02
2019-03-31T06:48:06.732Z,46.30
2019-03-31T06:50:35.284Z,46.25
2019-03-31T06:53:03.785Z,45.40
2019-03-31T06:55:32.258Z,45.05
2019-03-31T06:58:00.797Z,45.21
2019-03-31T07:00:29.337Z,44.35
2019-03-31T07:02:57.810Z,44.49
2019-03-31T07:05:26.388Z,43.90
2019-03-31T07:07:54.871Z,43.81
2019-03-31T07:10:23.427Z,44.53
2019-03-31T07:12:51.924Z,44.21
2019-03-31T07:15:20.427Z,44.20
2019-03-31T07:17:48.994Z,44.89
2019-03-31T07:20:18.200Z,44.25
2019-03-31T07:22:46.699Z,43.07
2019-03-31T07:25:15.707Z,43.80
2019-03-31T07:27:44.256Z,43.56
2019-03-31T07:30:15.373Z,43.42
2019-03-31T07:32:44.008Z,43.89
2019-03-31T07:35:18.586Z,43.21
2019-03-31T07:37:47.558Z,41.85
2019-03-31T07:40:16.174Z,43.10
2019-03-31T07:42:44.867Z,42.60
2019-03-31T07:45:15.206Z,40.85
2019-03-31T07:47:44.219Z,41.67
2019-03-31T07:50:15.411Z,41.97
2019-03-31T07:52:44.120Z,41.48
2019-03-31T07:55:13.335Z,41.25
2019-03-31T07:57:42.391Z,40.54
2019-03-31T08:00:21.789Z,39.65
2019-03-31T08:02:50.273Z,39.87
2019-03-31T08:05:32.369Z,39.63
2019-03-31T08:07:49.928Z,38.70
2019-03-31T08:10:19.871Z,38.72
2019-03-31T08:12:48.450Z,38.12
2019-03-31T08:15:18.560Z,38.46
2019-03-31T08:17:47.049Z,38.34
2019-03-31T08:20:17.726Z,37.89
2019-03-31T08:22:46.299Z,37.28
2019-03-31T08:25:15.327Z,36.47
2019-03-31T08:27:43.813Z,36.27
2019-03-31T08:30:14.457Z,36.90
2019-03-31T08:32:43.006Z,35.76
2019-03-31T08:35:11.935Z,34.46
2019-03-31T08:37:40.504Z,33.32
2019-03-31T08:40:11.164Z,33.00
2019-03-31T08:42:39.640Z,31.46
2019-03-31T08:45:08.562Z,31.04
2019-03-31T08:47:37.700Z,30.17
2019-03-31T08:50:07.039Z,30.95
2019-03-31T08:52:35.534Z,32.45
2019-03-31T08:55:04.973Z,29.77
2019-03-31T08:57:33.454Z,31.12
2019-03-31T09:00:02.023Z,30.61
2019-03-31T09:02:34.832Z,29.38
2019-03-31T09:05:04.688Z,30.06
2019-03-31T09:07:33.166Z,29.59
2019-03-31T09:10:01.646Z,29.39
2019-03-31T09:12:30.194Z,28.65
2019-03-31T09:14:58.678Z,28.28
2019-03-31T09:17:27.153Z,28.28
2019-03-31T09:19:55.642Z,28.67
2019-03-31T09:22:24.130Z,28.67
2019-03-31T09:24:52.602Z,29.22
2019-03-31T09:27:21.100Z,28.02
2019-03-31T09:29:49.603Z,27.64
2019-03-31T09:32:18.096Z,27.31
2019-03-31T09:34:46.603Z,27.31
2019-03-31T09:37:15.074Z,25.92
2019-03-31T09:39:43.556Z,25.92
2019-03-31T09:42:12.032Z,25.46
2019-03-31T09:44:40.539Z,26.07
2019-03-31T09:47:09.005Z,24.68
2019-03-31T09:49:37.508Z,25.78
2019-03-31T09:52:06.011Z,24.90
2019-03-31T09:54:34.486Z,25.57
2019-03-31T09:57:02.971Z,25.91
2019-03-31T09:59:31.461Z,25.74
2019-03-31T10:01:59.960Z,23.66
2019-03-31T10:04:28.436Z,23.66
2019-03-31T10:06:57.377Z,25.15
2019-03-31T10:09:25.858Z,24.30
2019-03-31T10:11:54.363Z,24.82
2019-03-31T10:14:22.842Z,26.48
2019-03-31T10:16:51.357Z,26.09
2019-03-31T10:19:19.827Z,24.79
2019-03-31T10:21:48.369Z,27.80
2019-03-31T10:24:16.876Z,26.52
2019-03-31T10:26:45.380Z,25.09
2019-03-31T10:29:13.858Z,23.92
2019-03-31T10:31:42.369Z,22.68
2019-03-31T10:34:10.979Z,22.70
2019-03-31T10:36:44.623Z,22.47
2019-03-31T10:39:10.243Z,23.54
2019-03-31T10:41:38.743Z,22.50
2019-03-31T10:44:07.289Z,26.29
2019-03-31T10:46:35.795Z,24.71
2019-03-31T10:49:05.614Z,23.09
2019-03-31T10:51:34.185Z,22.63
2019-03-31T10:54:04.615Z,22.28
2019-03-31T10:56:33.010Z,22.61
2019-03-31T10:59:01.527Z,22.61
2019-03-31T11:01:29.996Z,22.60
2019-03-31T11:03:58.644Z,21.02
2019-03-31T11:06:27.146Z,20.94
2019-03-31T11:08:55.650Z,22.03
2019-03-31T11:11:24.144Z,23.93
2019-03-31T11:13:53.783Z,27.00
2019-03-31T11:16:24.553Z,26.03
2019-03-31T11:18:53.027Z,23.21
2019-03-31T11:21:23.169Z,23.44
2019-03-31T11:23:51.634Z,23.77
2019-03-31T11:26:20.121Z,22.51
2019-03-31T11:28:48.612Z,23.78
2019-03-31T11:31:18.045Z,22.87
2019-03-31T11:33:46.656Z,21.48
2019-03-31T11:36:15.149Z,24.44
2019-03-31T11:38:43.646Z,25.97
2019-03-31T11:41:12.131Z,25.27
2019-03-31T11:43:40.629Z,25.27
2019-03-31T11:46:09.100Z,25.62
2019-03-31T11:48:37.676Z,24.62
2019-03-31T11:51:06.161Z,23.45
2019-03-31T11:53:34.658Z,25.05
2019-03-31T11:56:03.196Z,23.67
2019-03-31T11:58:32.465Z,23.94
2019-03-31T12:01:01.052Z,24.22
2019-03-31T12:03:31.192Z,24.54
2019-03-31T12:05:59.743Z,24.13
2019-03-31T12:08:28.262Z,24.97
2019-03-31T12:10:56.730Z,24.97
2019-03-31T12:13:25.232Z,25.78
2019-03-31T12:15:53.701Z,27.69
2019-03-31T12:18:24.291Z,25.24
2019-03-31T12:20:52.789Z,25.88
2019-03-31T12:23:21.279Z,25.23
2019-03-31T12:25:49.763Z,25.23
2019-03-31T12:28:18.267Z,25.86
2019-03-31T12:30:46.743Z,26.98
2019-03-31T12:33:15.249Z,26.98
2019-03-31T12:35:43.723Z,25.46
2019-03-31T12:38:12.237Z,26.52
2019-03-31T12:40:40.786Z,26.52
2019-03-31T12:43:09.256Z,29.68
2019-03-31T12:45:37.815Z,29.68
2019-03-31T12:48:06.457Z,29.23
2019-03-31T12:50:35.001Z,29.96
2019-03-31T12:53:03.493Z,30.10
2019-03-31T12:55:31.981Z,30.10
2019-03-31T12:58:00.484Z,30.31
2019-03-31T13:00:28.953Z,31.12
2019-03-31T13:02:57.529Z,32.59
2019-03-31T13:05:26.002Z,31.18
2019-03-31T13:07:56.832Z,31.18
2019-03-31T13:10:25.583Z,30.03
2019-03-31T13:12:54.063Z,28.20
2019-03-31T13:15:22.604Z,27.30
2019-03-31T13:17:51.108Z,28.73
2019-03-31T13:20:19.727Z,29.10
2019-03-31T13:22:48.214Z,30.15
2019-03-31T13:25:16.779Z,30.15
2019-03-31T13:27:45.357Z,28.30
2019-03-31T13:30:14.366Z,28.33
2019-03-31T13:32:43.110Z,27.11
2019-03-31T13:35:11.662Z,29.60
2019-03-31T13:37:40.174Z,27.90
2019-03-31T13:40:08.993Z,28.66
2019-03-31T13:42:37.638Z,29.87
2019-03-31T13:45:07.551Z,30.63
2019-03-31T13:47:36.048Z,32.41
2019-03-31T13:50:07.901Z,31.65
2019-03-31T13:52:35.676Z,31.06
2019-03-31T13:55:09.036Z,32.28
2019-03-31T13:57:39.426Z,31.92
2019-03-31T14:00:10.250Z,33.81
2019-03-31T14:02:39.481Z,32.15
2019-03-31T14:05:08.048Z,31.68
2019-03-31T14:07:36.522Z,31.48
2019-03-31T14:10:06.837Z,31.64
2019-03-31T14:12:35.387Z,30.07
2019-03-31T14:15:18.479Z,31.81
2019-03-31T14:17:36.221Z,31.85
2019-03-31T14:20:07.273Z,31.40
2019-03-31T14:22:35.816Z,30.63
2019-03-31T14:25:05.956Z,30.49
2019-03-31T14:27:34.426Z,31.19
2019-03-31T14:30:03.751Z,32.75
2019-03-31T14:32:32.220Z,33.28
2019-03-31T14:35:00.850Z,32.63
2019-03-31T14:37:29.359Z,31.60
2019-03-31T14:39:57.829Z,31.65
2019-03-31T14:42:26.584Z,31.37
2019-03-31T14:44:55.075Z,31.20
2019-03-31T14:47:23.594Z,31.97
2019-03-31T14:49:52.072Z,32.88
2019-03-31T14:52:27.324Z,33.27
2019-03-31T14:54:50.829Z,32.74
2019-03-31T14:57:19.303Z,33.08
2019-03-31T14:59:47.840Z,33.00
2019-03-31T15:02:16.312Z,33.62
2019-03-31T15:04:44.793Z,34.04
2019-03-31T15:07:13.287Z,32.37
2019-03-31T15:09:41.752Z,33.47
2019-03-31T15:12:10.233Z,32.61
2019-03-31T15:14:38.703Z,33.87
2019-03-31T15:17:07.198Z,33.03
2019-03-31T15:19:35.680Z,33.48
2019-03-31T15:22:04.149Z,33.95
2019-03-31T15:24:32.667Z,33.44
2019-03-31T15:27:01.160Z,33.88
2019-03-31T15:29:29.641Z,34.57
2019-03-31T15:31:58.119Z,34.96
2019-03-31T15:34:26.630Z,34.16
2019-03-31T15:36:55.103Z,33.89
2019-03-31T15:39:23.583Z,34.62
2019-03-31T15:41:52.087Z,34.62
2019-03-31T15:44:20.553Z,34.82
2019-03-31T15:46:49.073Z,35.07
2019-03-31T15:49:17.539Z,35.42
2019-03-31T15:51:46.013Z,35.68
2019-03-31T15:54:14.520Z,35.14
2019-03-31T15:56:43.065Z,34.94
2019-03-31T15:59:11.544Z,36.63
2019-03-31T16:01:40.016Z,36.87
2019-03-31T16:04:08.516Z,35.49
2019-03-31T16:06:38.116Z,34.92
2019-03-31T16:09:22.480Z,35.60
2019-03-31T16:11:38.055Z,35.50
2019-03-31T16:14:06.560Z,34.55
2019-03-31T16:16:35.040Z,34.07
2019-03-31T16:19:03.624Z,34.67
2019-03-31T16:21:32.102Z,35.02
2019-03-31T16:24:00.575Z,35.38
2019-03-31T16:26:29.066Z,38.30
2019-03-31T16:28:57.574Z,41.00
2019-03-31T16:31:26.045Z,41.78
2019-03-31T16:33:54.548Z,41.63
2019-03-31T16:36:23.016Z,40.54
2019-03-31T16:38:51.538Z,42.22
2019-03-31T16:41:20.005Z,41.47
2019-03-31T16:43:48.481Z,41.86
2019-03-31T16:46:16.980Z,42.18
2019-03-31T16:48:45.484Z,42.60
2019-03-31T16:51:13.988Z,42.77
2019-03-31T16:53:42.489Z,42.95
2019-03-31T16:56:11.003Z,42.19
2019-03-31T16:58:39.473Z,42.01
2019-03-31T17:01:08.010Z,42.99
2019-03-31T17:03:36.519Z,42.88
2019-03-31T17:06:05.094Z,42.10
2019-03-31T17:08:33.558Z,42.04
2019-03-31T17:11:05.356Z,43.59
2019-03-31T17:13:32.264Z,43.27
2019-03-31T17:16:00.751Z,44.33
2019-03-31T17:18:29.219Z,44.14
2019-03-31T17:20:57.727Z,43.27
2019-03-31T17:23:26.219Z,44.18
2019-03-31T17:25:54.761Z,43.63
2019-03-31T17:28:23.269Z,44.19
2019-03-31T17:30:51.742Z,45.10
2019-03-31T17:33:20.302Z,46.45
2019-03-31T17:35:48.787Z,44.96
2019-03-31T17:38:17.259Z,44.68
2019-03-31T17:40:45.772Z,43.90
2019-03-31T17:43:14.242Z,45.12
2019-03-31T17:45:42.992Z,44.79
2019-03-31T17:48:11.432Z,43.13
2019-03-31T17:50:39.905Z,43.37
2019-03-31T17:53:08.440Z,44.44
2019-03-31T17:55:36.914Z,46.62
2019-03-31T17:58:05.462Z,46.39
2019-03-31T18:00:33.971Z,48.18
2019-03-31T18:03:04.583Z,48.95
2019-03-31T18:05:33.074Z,47.75
2019-03-31T18:08:01.585Z,49.45
2019-03-31T18:10:30.066Z,49.57
2019-03-31T18:12:58.553Z,49.91
2019-03-31T18:15:27.019Z,50.08
2019-03-31T18:17:55.529Z,51.98
2019-03-31T18:20:23.802Z,53.50
2019-03-31T18:22:52.287Z,54.03
2019-03-31T18:25:20.761Z,53.70
2019-03-31T18:27:49.257Z,54.41
2019-03-31T18:30:18.974Z,54.01
2019-03-31T18:32:47.441Z,54.79
2019-03-31T18:35:16.982Z,55.62
2019-03-31T18:37:45.638Z,56.31
2019-03-31T18:40:14.663Z,56.81
2019-03-31T18:42:43.156Z,56.28
2019-03-31T18:45:12.933Z,56.03
2019-03-31T18:47:41.411Z,56.68
2019-03-31T18:50:10.146Z,57.89
2019-03-31T18:52:38.669Z,57.83
2019-03-31T18:55:25.593Z,57.55
2019-03-31T18:57:55.728Z,57.57
2019-03-31T19:00:42.311Z,57.48
2019-03-31T19:03:18.221Z,57.55
2019-03-31T19:05:48.359Z,58.47
2019-03-31T19:08:36.250Z,58.54
2019-03-31T19:11:10.374Z,58.81
2019-03-31T19:13:54.520Z,58.98
2019-03-31T19:16:27.921Z,58.54
2019-03-31T19:18:58.030Z,58.30
2019-03-31T19:21:33.804Z,58.68
2019-03-31T19:24:19.985Z,58.57
2019-03-31T19:27:05.271Z,59.53
2019-03-31T19:29:35.375Z,59.82
2019-03-31T19:32:05.480Z,59.70
2019-03-31T19:34:38.634Z,59.49
2019-03-31T19:37:23.740Z,60.04
2019-03-31T19:39:53.914Z,59.38
2019-03-31T19:42:29.564Z,58.34
2019-03-31T19:45:15.980Z,60.21
2019-03-31T19:47:46.089Z,60.01
2019-03-31T19:50:25.260Z,59.60
2019-03-31T19:53:13.718Z,59.43
2019-03-31T19:55:43.865Z,59.02
2019-03-31T19:58:13.975Z,59.29
2019-03-31T20:00:59.194Z,60.08
2019-03-31T20:03:29.311Z,59.31
2019-03-31T20:05:59.466Z,61.10
2019-03-31T20:08:45.752Z,59.99
2019-03-31T20:11:15.887Z,60.63
2019-03-31T20:13:59.657Z,60.83
2019-03-31T20:16:29.846Z,62.00
2019-03-31T20:19:14.691Z,60.46
2019-03-31T20:21:47.687Z,61.22
2019-03-31T20:24:29.860Z,60.92
2019-03-31T20:27:00.000Z,61.44
2019-03-31T20:29:41.865Z,61.40
2019-03-31T20:32:20.551Z,60.81
2019-03-31T20:34:56.637Z,61.86
2019-03-31T20:37:29.715Z,60.05
2019-03-31T20:40:18.583Z,61.03
2019-03-31T20:42:48.694Z,61.12
2019-03-31T20:45:17.150Z,60.92
2019-03-31T20:47:45.627Z,61.99
2019-03-31T20:50:14.293Z,62.02
2019-03-31T20:52:44.343Z,61.49
2019-03-31T20:55:16.612Z,59.29
2019-03-31T20:57:43.203Z,59.62
2019-03-31T21:00:12.104Z,59.83
2019-03-31T21:02:40.585Z,58.78
2019-03-31T21:05:09.187Z,57.91
2019-03-31T21:07:37.723Z,57.00
2019-03-31T21:10:06.954Z,56.44
2019-03-31T21:12:35.449Z,55.62
2019-03-31T21:15:05.346Z,55.35
2019-03-31T21:17:33.807Z,56.05
2019-03-31T21:20:04.366Z,56.04
2019-03-31T21:22:32.847Z,56.14
2019-03-31T21:25:01.343Z,56.25
2019-03-31T21:27:29.813Z,56.08
2019-03-31T21:29:58.291Z,56.49
2019-03-31T21:32:26.772Z,56.12
2019-03-31T21:34:55.248Z,55.78
2019-03-31T21:37:25.233Z,56.26
2019-03-31T21:39:53.789Z,57.05
2019-03-31T21:42:22.270Z,56.31
2019-03-31T21:44:50.743Z,56.99
2019-03-31T21:47:19.240Z,57.70
2019-03-31T21:49:47.738Z,57.62
2019-03-31T21:52:16.206Z,56.40
2019-03-31T21:54:44.702Z,57.34
2019-03-31T21:57:13.466Z,57.97
2019-03-31T21:59:41.931Z,57.01
2019-03-31T22:02:10.410Z,57.18
2019-03-31T22:04:38.891Z,56.46
2019-03-31T22:07:07.428Z,56.39
2019-03-31T22:09:35.916Z,55.12
2019-03-31T22:12:04.579Z,55.18
2019-03-31T22:14:33.083Z,56.05
2019-03-31T22:17:01.589Z,57.40
2019-03-31T22:19:30.059Z,57.80
2019-03-31T22:21:58.538Z,57.77
2019-03-31T22:24:27.017Z,58.85
2019-03-31T22:26:55.487Z,57.87
2019-03-31T22:29:23.967Z,58.95
2019-03-31T22:31:52.433Z,59.84
2019-03-31T22:34:20.945Z,59.48
2019-03-31T22:36:49.416Z,59.78
2019-03-31T22:39:17.887Z,58.56
2019-03-31T22:41:46.405Z,58.83
2019-03-31T22:44:14.843Z,59.08
2019-03-31T22:46:53.752Z,59.04
2019-03-31T22:49:13.542Z,58.99
2019-03-31T22:51:42.016Z,58.54
2019-03-31T22:54:10.517Z,59.36
2019-03-31T22:56:38.983Z,59.55
2019-03-31T22:59:09.723Z,59.31
2019-03-31T23:01:37.740Z,59.34
2019-03-31T23:04:06.238Z,57.80
2019-03-31T23:06:34.706Z,57.73
2019-03-31T23:09:04.968Z,56.42
2019-03-31T23:11:33.433Z,55.38
2019-03-31T23:14:01.982Z,54.61
2019-03-31T23:16:30.449Z,54.55
2019-03-31T23:18:58.982Z,55.19
2019-03-31T23:21:27.460Z,56.29
2019-03-31T23:23:55.973Z,56.41
2019-03-31T23:26:24.523Z,56.30
2019-03-31T23:28:53.097Z,56.48
2019-03-31T23:31:21.567Z,56.21
2019-03-31T23:33:50.061Z,57.31
2019-03-31T23:36:18.562Z,57.52
2019-03-31T23:38:47.062Z,56.89
2019-03-31T23:41:15.535Z,58.58
2019-03-31T23:43:44.056Z,58.19
2019-03-31T23:46:13.154Z,60.87
2019-03-31T23:48:41.622Z,62.46
2019-03-31T23:51:10.118Z,62.91
2019-03-31T23:53:38.650Z,62.97
2019-03-31T23:56:07.222Z,61.38
2019-03-31T23:58:35.684Z,62.43
